createdAt,value
2022-12-18T00:01:22.069Z,89.29
2022-12-18T00:03:49.040Z,88.79
2022-12-18T00:06:17.031Z,88.55
2022-12-18T00:08:44.871Z,88.84
2022-12-18T00:11:17.339Z,88.87
2022-12-18T00:13:44.314Z,88.66
2022-12-18T00:16:13.508Z,88.79
2022-12-18T00:18:40.866Z,88.91
2022-12-18T00:21:09.615Z,88.80
2022-12-18T00:23:37.998Z,89.00
2022-12-18T00:26:08.360Z,88.85
2022-12-18T00:28:34.902Z,88.93
2022-12-18T00:31:10.567Z,88.90
2022-12-18T00:33:38.109Z,89.06
2022-12-18T00:36:06.854Z,89.33
2022-12-18T00:38:34.458Z,88.60
2022-12-18T00:41:01.014Z,89.11
2022-12-18T00:43:27.905Z,88.74
2022-12-18T00:45:54.337Z,88.70
2022-12-18T00:48:20.820Z,88.92
2022-12-18T00:50:49.600Z,88.50
2022-12-18T00:53:16.439Z,88.76
2022-12-18T00:55:43.741Z,88.49
2022-12-18T00:58:11.096Z,88.67
2022-12-18T01:00:37.875Z,88.65
2022-12-18T01:03:05.258Z,88.53
2022-12-18T01:05:32.397Z,88.45
2022-12-18T01:07:59.426Z,88.37
2022-12-18T01:10:26.431Z,88.74
2022-12-18T01:12:52.952Z,88.81
2022-12-18T01:15:19.905Z,88.46
2022-12-18T01:17:46.372Z,88.73
2022-12-18T01:20:13.274Z,88.83
2022-12-18T01:22:39.700Z,88.54
2022-12-18T01:25:06.538Z,89.03
2022-12-18T01:27:34.418Z,88.61
2022-12-18T01:30:00.881Z,88.72
2022-12-18T01:32:27.238Z,88.81
2022-12-18T01:34:53.573Z,88.83
2022-12-18T01:37:19.937Z,89.11
2022-12-18T01:39:46.315Z,88.40
2022-12-18T01:42:15.660Z,88.78
2022-12-18T01:44:59.030Z,88.48
2022-12-18T01:47:37.588Z,88.85
2022-12-18T01:50:09.002Z,88.51
2022-12-18T01:52:37.626Z,88.60
2022-12-18T01:55:07.114Z,88.73
2022-12-18T01:57:34.115Z,88.66
2022-12-18T02:00:04.452Z,88.31
2022-12-18T02:02:31.718Z,88.68
2022-12-18T02:04:58.279Z,88.69
2022-12-18T02:07:30.830Z,88.64
2022-12-18T02:10:07.746Z,88.05
2022-12-18T02:12:49.490Z,88.12
2022-12-18T02:15:42.302Z,88.02
2022-12-18T02:18:19.097Z,87.79
2022-12-18T02:20:50.503Z,87.83
2022-12-18T02:23:51.136Z,88.10
2022-12-18T02:26:29.413Z,87.97
2022-12-18T02:29:05.890Z,87.52
2022-12-18T02:31:39.935Z,87.84
2022-12-18T02:34:08.775Z,87.44
2022-12-18T02:36:39.863Z,87.83
2022-12-18T02:39:09.985Z,87.27
2022-12-18T02:41:37.591Z,87.65
2022-12-18T02:44:10.799Z,87.28
2022-12-18T02:46:44.571Z,87.12
2022-12-18T02:49:45.987Z,86.97
2022-12-18T02:52:30.789Z,87.55
2022-12-18T02:55:18.196Z,86.77
2022-12-18T02:57:54.967Z,86.53
2022-12-18T03:00:25.440Z,87.53
2022-12-18T03:03:04.352Z,86.81
2022-12-18T03:05:45.676Z,86.33
2022-12-18T03:08:29.793Z,86.96
2022-12-18T03:11:03.831Z,86.45
2022-12-18T03:14:07.194Z,87.27
2022-12-18T03:16:36.645Z,86.62
2022-12-18T03:19:07.650Z,86.93
2022-12-18T03:21:43.583Z,86.67
2022-12-18T03:24:11.921Z,86.70
2022-12-18T03:26:45.487Z,87.11
2022-12-18T03:29:22.423Z,86.75
2022-12-18T03:31:57.477Z,86.66
2022-12-18T03:34:36.535Z,86.61
2022-12-18T03:37:03.144Z,86.71
2022-12-18T03:39:29.654Z,86.79
2022-12-18T03:42:11.984Z,87.24
2022-12-18T03:45:03.000Z,86.93
2022-12-18T03:47:33.466Z,86.75
2022-12-18T03:50:15.628Z,86.26
2022-12-18T03:53:01.389Z,86.33
2022-12-18T03:55:31.730Z,86.37
2022-12-18T03:57:59.786Z,86.59
2022-12-18T04:00:26.602Z,86.20
2022-12-18T04:02:55.830Z,86.59
2022-12-18T04:05:25.177Z,86.44
2022-12-18T04:07:53.149Z,86.26
2022-12-18T04:10:19.603Z,86.45
2022-12-18T04:12:46.059Z,86.71
2022-12-18T04:15:13.614Z,86.36
2022-12-18T04:17:48.567Z,86.41
2022-12-18T04:20:15.039Z,86.16
2022-12-18T04:22:41.406Z,86.49
2022-12-18T04:25:08.207Z,86.47
2022-12-18T04:27:35.087Z,85.78
2022-12-18T04:30:01.891Z,86.08
2022-12-18T04:32:28.316Z,85.93
2022-12-18T04:34:54.684Z,86.22
2022-12-18T04:37:21.068Z,86.03
2022-12-18T04:39:47.635Z,86.09
2022-12-18T04:42:13.970Z,85.97
2022-12-18T04:44:40.337Z,85.51
2022-12-18T04:47:06.704Z,85.80
2022-12-18T04:49:33.096Z,85.69
2022-12-18T04:51:59.479Z,85.79
2022-12-18T04:54:26.454Z,85.72
2022-12-18T04:56:52.836Z,85.86
2022-12-18T04:59:19.884Z,85.76
2022-12-18T05:01:46.994Z,85.45
2022-12-18T05:04:13.458Z,85.41
2022-12-18T05:06:39.869Z,85.83
2022-12-18T05:09:06.367Z,85.00
2022-12-18T05:11:32.728Z,85.33
2022-12-18T05:13:59.080Z,85.13
2022-12-18T05:16:25.465Z,85.35
2022-12-18T05:18:51.913Z,84.99
2022-12-18T05:21:18.279Z,84.92
2022-12-18T05:23:44.689Z,85.08
2022-12-18T05:26:16.418Z,84.68
2022-12-18T05:28:42.915Z,84.83
2022-12-18T05:31:09.462Z,84.59
2022-12-18T05:33:36.199Z,84.61
2022-12-18T05:36:05.001Z,84.65
2022-12-18T05:38:33.246Z,84.87
2022-12-18T05:40:59.856Z,85.24
2022-12-18T05:43:27.713Z,84.98
2022-12-18T05:45:54.854Z,85.35
2022-12-18T05:48:22.366Z,85.29
2022-12-18T05:50:50.162Z,85.16
2022-12-18T05:53:20.215Z,85.13
2022-12-18T05:55:47.729Z,85.15
2022-12-18T05:58:15.280Z,84.94
2022-12-18T06:00:43.999Z,85.20
2022-12-18T06:03:11.830Z,85.41
2022-12-18T06:05:43.961Z,85.37
2022-12-18T06:08:11.529Z,85.16
2022-12-18T06:10:38.363Z,85.39
2022-12-18T06:13:05.730Z,84.98
2022-12-18T06:15:32.331Z,84.50
2022-12-18T06:17:58.694Z,84.75
2022-12-18T06:20:29.078Z,84.83
2022-12-18T06:22:58.224Z,85.05
2022-12-18T06:25:24.582Z,84.79
2022-12-18T06:27:50.981Z,85.12
2022-12-18T06:30:17.511Z,84.94
2022-12-18T06:32:43.860Z,84.58
2022-12-18T06:35:10.931Z,84.78
2022-12-18T06:37:37.423Z,84.81
2022-12-18T06:40:04.121Z,84.72
2022-12-18T06:42:30.485Z,84.51
2022-12-18T06:44:56.873Z,84.59
2022-12-18T06:47:23.220Z,84.80
2022-12-18T06:49:50.780Z,84.38
2022-12-18T06:52:17.286Z,84.48
2022-12-18T06:54:43.625Z,85.05
2022-12-18T06:57:10.016Z,85.05
2022-12-18T06:59:36.354Z,84.46
2022-12-18T07:02:02.849Z,84.77
2022-12-18T07:04:30.720Z,84.85
2022-12-18T07:06:57.167Z,84.69
2022-12-18T07:09:23.643Z,84.87
2022-12-18T07:11:50.403Z,84.57
2022-12-18T07:14:16.760Z,84.94
2022-12-18T07:16:43.188Z,84.70
2022-12-18T07:19:09.603Z,85.06
2022-12-18T07:21:36.143Z,84.61
2022-12-18T07:24:02.575Z,84.57
2022-12-18T07:26:28.922Z,84.76
2022-12-18T07:28:57.264Z,85.10
2022-12-18T07:31:24.791Z,84.98
2022-12-18T07:33:52.073Z,84.96
2022-12-18T07:36:18.674Z,84.55
2022-12-18T07:38:48.237Z,85.18
2022-12-18T07:41:14.779Z,84.79
2022-12-18T07:43:42.763Z,85.16
2022-12-18T07:46:10.412Z,84.63
2022-12-18T07:48:36.852Z,85.01
2022-12-18T07:51:06.418Z,85.24
2022-12-18T07:53:34.226Z,85.21
2022-12-18T07:56:26.671Z,84.81
2022-12-18T07:58:49.602Z,85.49
2022-12-18T08:01:16.169Z,85.69
2022-12-18T08:03:43.638Z,84.75
2022-12-18T08:06:10.989Z,85.06
2022-12-18T08:08:37.861Z,84.91
2022-12-18T08:11:04.332Z,85.74
2022-12-18T08:13:30.734Z,85.72
2022-12-18T08:16:01.991Z,85.25
2022-12-18T08:18:29.058Z,85.45
2022-12-18T08:20:56.408Z,85.44
2022-12-18T08:23:22.990Z,85.38
2022-12-18T08:25:49.444Z,85.98
2022-12-18T08:28:15.872Z,85.92
2022-12-18T08:30:43.466Z,86.10
2022-12-18T08:33:09.878Z,86.18
2022-12-18T08:35:42.514Z,86.05
2022-12-18T08:38:11.918Z,85.86
2022-12-18T08:40:38.315Z,86.06
2022-12-18T08:43:23.294Z,86.11
2022-12-18T08:45:49.992Z,86.08
2022-12-18T08:48:21.877Z,86.04
2022-12-18T08:50:58.910Z,86.73
2022-12-18T08:53:25.503Z,86.28
2022-12-18T08:55:51.964Z,86.03
2022-12-18T08:58:18.794Z,86.70
2022-12-18T09:00:45.165Z,86.43
2022-12-18T09:03:13.835Z,86.14
2022-12-18T09:05:40.511Z,86.63
2022-12-18T09:08:06.893Z,86.34
2022-12-18T09:10:35.605Z,86.58
2022-12-18T09:13:03.958Z,86.56
2022-12-18T09:15:30.332Z,86.49
2022-12-18T09:17:56.701Z,86.71
2022-12-18T09:20:23.042Z,86.69
2022-12-18T09:22:49.423Z,86.56
2022-12-18T09:25:16.459Z,86.98
2022-12-18T09:27:42.867Z,86.42
2022-12-18T09:30:09.821Z,86.47
2022-12-18T09:32:36.172Z,86.58
2022-12-18T09:35:02.668Z,86.69
2022-12-18T09:37:29.071Z,86.54
2022-12-18T09:39:55.442Z,86.12
2022-12-18T09:42:23.292Z,86.25
2022-12-18T09:44:54.018Z,86.14
2022-12-18T09:47:32.335Z,86.12
2022-12-18T09:50:24.682Z,86.28
2022-12-18T09:52:55.971Z,85.70
2022-12-18T09:55:36.911Z,86.26
2022-12-18T09:58:33.210Z,85.71
2022-12-18T10:00:59.979Z,85.63
2022-12-18T10:03:26.584Z,85.48
2022-12-18T10:06:04.999Z,85.65
2022-12-18T10:08:40.878Z,85.61
2022-12-18T10:11:45.945Z,85.35
2022-12-18T10:14:31.310Z,85.40
2022-12-18T10:17:19.394Z,85.37
2022-12-18T10:20:41.641Z,85.52
2022-12-18T10:23:26.857Z,85.33
2022-12-18T10:26:07.926Z,85.23
2022-12-18T10:28:37.789Z,85.23
2022-12-18T10:31:06.924Z,85.36
2022-12-18T10:33:34.441Z,84.91
2022-12-18T10:36:01.209Z,84.94
2022-12-18T10:38:29.809Z,85.20
2022-12-18T10:41:05.491Z,84.86
2022-12-18T10:43:33.110Z,84.97
2022-12-18T10:46:13.724Z,84.98
2022-12-18T10:48:40.501Z,85.27
2022-12-18T10:51:12.167Z,85.23
2022-12-18T10:53:42.848Z,84.66
2022-12-18T10:56:09.536Z,84.84
2022-12-18T10:58:38.064Z,84.55
2022-12-18T11:01:07.002Z,84.54
2022-12-18T11:03:45.653Z,84.67
2022-12-18T11:06:22.604Z,84.46
2022-12-18T11:09:12.284Z,84.47
2022-12-18T11:11:40.964Z,84.23
2022-12-18T11:14:23.988Z,83.86
2022-12-18T11:19:41.742Z,83.89
2022-12-18T11:22:24.138Z,83.30
2022-12-18T11:25:29.974Z,83.31
2022-12-18T11:28:00.150Z,83.49
2022-12-18T11:30:32.589Z,83.38
2022-12-18T11:33:16.739Z,83.09
2022-12-18T11:35:51.619Z,83.08
2022-12-18T11:38:40.274Z,82.93
2022-12-18T11:41:49.964Z,83.33
2022-12-18T11:44:25.976Z,82.99
2022-12-18T11:47:10.458Z,82.76
2022-12-18T11:49:37.148Z,82.54
2022-12-18T11:52:22.113Z,82.48
2022-12-18T11:54:52.366Z,82.43
2022-12-18T11:57:29.899Z,82.17
2022-12-18T12:00:12.161Z,81.96
2022-12-18T12:03:00.633Z,81.85
2022-12-18T12:05:33.059Z,81.91
2022-12-18T12:08:13.934Z,81.99
2022-12-18T12:10:58.594Z,81.50
2022-12-18T12:13:31.651Z,81.80
2022-12-18T12:16:08.167Z,81.64
2022-12-18T12:18:53.500Z,81.75
2022-12-18T12:21:29.734Z,81.38
2022-12-18T12:24:38.080Z,81.32
2022-12-18T12:27:18.216Z,81.27
2022-12-18T12:30:03.780Z,81.09
2022-12-18T12:32:54.550Z,81.40
2022-12-18T12:35:37.305Z,81.27
2022-12-18T12:38:20.294Z,81.16
2022-12-18T12:41:02.728Z,80.79
2022-12-18T12:43:48.042Z,80.77
2022-12-18T12:46:20.889Z,80.81
2022-12-18T12:49:00.096Z,81.31
2022-12-18T12:51:29.032Z,80.99
2022-12-18T12:53:58.151Z,80.62
2022-12-18T12:56:33.664Z,80.03
2022-12-18T12:59:08.129Z,80.70
2022-12-18T13:01:40.623Z,80.63
2022-12-18T13:04:24.784Z,80.48
2022-12-18T13:07:14.229Z,80.52
2022-12-18T13:10:25.165Z,80.31
2022-12-18T13:13:08.975Z,80.63
2022-12-18T13:15:46.793Z,79.82
2022-12-18T13:18:24.923Z,80.17
2022-12-18T13:21:03.288Z,79.97
2022-12-18T13:23:37.671Z,80.03
2022-12-18T13:26:07.244Z,79.95
2022-12-18T13:28:33.555Z,79.56
2022-12-18T13:31:03.236Z,79.76
2022-12-18T13:33:29.695Z,79.78
2022-12-18T13:36:11.624Z,79.79
2022-12-18T13:38:40.385Z,79.75
2022-12-18T13:41:15.952Z,79.80
2022-12-18T13:43:46.646Z,79.70
2022-12-18T13:46:28.534Z,79.71
2022-12-18T13:49:04.317Z,79.58
2022-12-18T13:51:33.950Z,79.55
2022-12-18T13:54:04.008Z,79.55
2022-12-18T13:56:33.072Z,79.23
2022-12-18T13:59:14.794Z,79.53
2022-12-18T14:01:53.186Z,79.08
2022-12-18T14:04:19.968Z,78.75
2022-12-18T14:06:48.702Z,79.19
2022-12-18T14:09:21.707Z,78.85
2022-12-18T14:11:50.233Z,78.93
2022-12-18T14:14:19.575Z,79.06
2022-12-18T14:16:47.846Z,79.27
2022-12-18T14:19:19.232Z,78.77
2022-12-18T14:21:50.747Z,78.59
2022-12-18T14:24:22.711Z,78.71
2022-12-18T14:26:51.055Z,78.48
2022-12-18T14:29:24.784Z,78.64
2022-12-18T14:32:17.041Z,78.62
2022-12-18T14:34:51.827Z,78.23
2022-12-18T14:37:23.223Z,78.22
2022-12-18T14:40:04.435Z,78.04
2022-12-18T14:42:35.373Z,78.30
2022-12-18T14:45:42.304Z,78.70
2022-12-18T14:48:30.978Z,78.25
2022-12-18T14:51:02.783Z,78.30
2022-12-18T14:53:36.552Z,77.72
2022-12-18T14:56:13.244Z,77.65
2022-12-18T14:58:40.423Z,77.74
2022-12-18T15:01:07.652Z,77.33
2022-12-18T15:03:34.172Z,77.91
2022-12-18T15:06:17.173Z,77.94
2022-12-18T15:08:43.721Z,77.99
2022-12-18T15:11:33.937Z,77.61
2022-12-18T15:14:01.603Z,77.44
2022-12-18T15:16:28.051Z,77.88
2022-12-18T15:18:54.594Z,78.10
2022-12-18T15:21:22.040Z,77.86
2022-12-18T15:23:53.482Z,77.59
2022-12-18T15:26:22.827Z,77.31
2022-12-18T15:28:52.115Z,77.44
2022-12-18T15:31:28.911Z,77.32
2022-12-18T15:33:55.273Z,77.23
2022-12-18T15:36:26.440Z,77.08
2022-12-18T15:38:55.059Z,77.36
2022-12-18T15:41:24.845Z,77.31
2022-12-18T15:43:53.238Z,77.55
2022-12-18T15:46:22.293Z,77.81
2022-12-18T15:48:50.866Z,77.35
2022-12-18T15:51:21.316Z,77.50
2022-12-18T15:53:49.923Z,77.15
2022-12-18T15:56:35.474Z,77.29
2022-12-18T15:59:02.544Z,77.22
2022-12-18T16:01:31.323Z,77.04
2022-12-18T16:03:58.336Z,77.06
2022-12-18T16:06:24.721Z,77.23
2022-12-18T16:08:51.131Z,77.02
2022-12-18T16:11:38.868Z,77.19
2022-12-18T16:14:20.733Z,76.89
2022-12-18T16:16:49.089Z,76.82
2022-12-18T16:19:15.774Z,76.97
2022-12-18T16:21:42.153Z,77.22
2022-12-18T16:24:20.411Z,76.95
2022-12-18T16:26:46.799Z,76.84
2022-12-18T16:29:13.186Z,77.04
2022-12-18T16:31:39.678Z,76.99
2022-12-18T16:34:13.826Z,76.67
2022-12-18T16:36:40.213Z,76.87
2022-12-18T16:39:06.697Z,76.56
2022-12-18T16:41:33.267Z,76.92
2022-12-18T16:44:00.821Z,76.62
2022-12-18T16:46:27.283Z,76.75
2022-12-18T16:48:53.780Z,76.59
2022-12-18T16:51:20.163Z,77.03
2022-12-18T16:53:46.532Z,77.22
2022-12-18T16:56:12.874Z,76.92
2022-12-18T16:58:39.276Z,76.89
2022-12-18T17:01:09.712Z,77.00
2022-12-18T17:03:36.223Z,76.75
2022-12-18T17:06:05.050Z,76.54
2022-12-18T17:08:31.994Z,76.71
2022-12-18T17:11:07.734Z,76.67
2022-12-18T17:13:35.782Z,76.39
2022-12-18T17:16:07.143Z,76.59
2022-12-18T17:18:34.711Z,76.64
2022-12-18T17:21:07.085Z,76.48
2022-12-18T17:23:33.476Z,76.32
2022-12-18T17:26:00.191Z,76.47
2022-12-18T17:28:27.932Z,75.95
2022-12-18T17:30:55.745Z,76.56
2022-12-18T17:33:23.686Z,76.18
2022-12-18T17:35:50.281Z,76.48
2022-12-18T17:38:16.901Z,76.45
2022-12-18T17:40:46.403Z,76.49
2022-12-18T17:43:13.126Z,76.20
2022-12-18T17:45:40.242Z,76.29
2022-12-18T17:48:07.575Z,76.44
2022-12-18T17:50:35.526Z,76.20
2022-12-18T17:53:02.666Z,76.30
2022-12-18T17:55:29.221Z,75.90
2022-12-18T17:57:55.779Z,76.12
2022-12-18T18:00:22.242Z,76.06
2022-12-18T18:02:48.803Z,76.18
2022-12-18T18:05:15.276Z,75.97
2022-12-18T18:07:42.929Z,75.70
2022-12-18T18:10:09.599Z,76.33
2022-12-18T18:12:55.285Z,76.07
2022-12-18T18:15:22.115Z,76.38
2022-12-18T18:17:48.484Z,76.14
2022-12-18T18:20:22.165Z,76.03
2022-12-18T18:22:48.983Z,76.33
2022-12-18T18:25:15.762Z,76.03
2022-12-18T18:27:42.780Z,75.65
2022-12-18T18:30:12.737Z,76.35
2022-12-18T18:32:39.935Z,76.40
2022-12-18T18:35:19.338Z,76.49
2022-12-18T18:37:55.018Z,76.06
2022-12-18T18:40:21.509Z,76.13
2022-12-18T18:42:48.335Z,76.41
2022-12-18T18:45:14.812Z,76.11
2022-12-18T18:47:41.160Z,76.42
2022-12-18T18:50:07.842Z,75.91
2022-12-18T18:52:34.275Z,76.39
2022-12-18T18:55:13.237Z,76.02
2022-12-18T18:57:40.152Z,76.38
2022-12-18T19:00:07.475Z,76.08
2022-12-18T19:02:34.029Z,76.23
2022-12-18T19:05:00.596Z,75.94
2022-12-18T19:07:30.330Z,76.45
2022-12-18T19:10:03.483Z,76.08
2022-12-18T19:12:49.902Z,76.26
2022-12-18T19:15:16.272Z,75.88
2022-12-18T19:17:42.961Z,75.87
2022-12-18T19:20:13.620Z,75.79
2022-12-18T19:22:39.981Z,75.90
2022-12-18T19:25:06.975Z,75.62
2022-12-18T19:27:36.442Z,75.72
2022-12-18T19:30:03.294Z,75.74
2022-12-18T19:32:29.688Z,75.25
2022-12-18T19:34:57.356Z,75.73
2022-12-18T19:37:23.788Z,75.48
2022-12-18T19:39:52.525Z,75.65
2022-12-18T19:42:25.554Z,75.31
2022-12-18T19:44:54.622Z,75.21
2022-12-18T19:47:23.797Z,75.29
2022-12-18T19:49:50.234Z,75.18
2022-12-18T19:52:16.655Z,75.44
2022-12-18T19:54:43.052Z,74.99
2022-12-18T19:57:11.468Z,75.21
2022-12-18T19:59:38.080Z,75.57
2022-12-18T20:02:05.551Z,76.58
2022-12-18T20:04:32.154Z,76.71
2022-12-18T20:06:58.889Z,77.26
2022-12-18T20:09:25.469Z,78.09
2022-12-18T20:11:52.770Z,78.59
2022-12-18T20:14:23.143Z,79.21
2022-12-18T20:16:51.757Z,79.24
2022-12-18T20:19:18.280Z,79.83
2022-12-18T20:21:45.346Z,80.29
2022-12-18T20:24:12.293Z,81.20
2022-12-18T20:26:39.168Z,81.43
2022-12-18T20:29:05.514Z,81.77
2022-12-18T20:31:32.385Z,82.30
2022-12-18T20:34:01.618Z,82.73
2022-12-18T20:36:30.783Z,83.41
2022-12-18T20:39:01.593Z,83.85
2022-12-18T20:41:35.209Z,84.08
2022-12-18T20:44:21.800Z,84.26
2022-12-18T20:46:54.755Z,84.83
2022-12-18T20:49:21.692Z,84.96
2022-12-18T20:51:53.059Z,85.27
2022-12-18T20:54:19.918Z,85.60
2022-12-18T20:56:46.362Z,85.45
2022-12-18T20:59:12.901Z,85.91
2022-12-18T21:01:42.807Z,86.39
2022-12-18T21:04:15.457Z,86.35
2022-12-18T21:06:50.813Z,86.33
2022-12-18T21:09:18.753Z,86.98
2022-12-18T21:12:03.596Z,87.40
2022-12-18T21:14:33.659Z,87.31
2022-12-18T21:17:03.025Z,87.69
2022-12-18T21:19:30.074Z,88.08
2022-12-18T21:21:56.983Z,88.54
2022-12-18T21:24:24.442Z,88.34
2022-12-18T21:26:51.577Z,88.58
2022-12-18T21:29:20.551Z,88.89
2022-12-18T21:31:47.805Z,88.89
2022-12-18T21:34:20.475Z,88.89
2022-12-18T21:36:47.665Z,89.39
2022-12-18T21:39:15.875Z,89.22
2022-12-18T21:42:01.348Z,89.69
2022-12-18T21:44:27.822Z,89.65
2022-12-18T21:46:58.982Z,89.85
2022-12-18T21:49:30.364Z,90.19
2022-12-18T21:51:58.556Z,90.46
2022-12-18T21:54:27.019Z,90.31
2022-12-18T21:56:55.859Z,90.57
2022-12-18T21:59:23.936Z,90.87
2022-12-18T22:01:51.813Z,90.69
2022-12-18T22:04:19.267Z,90.96
2022-12-18T22:06:46.910Z,90.78
2022-12-18T22:09:16.563Z,91.11
2022-12-18T22:11:43.580Z,90.97
2022-12-18T22:14:10.867Z,91.33
2022-12-18T22:16:37.703Z,91.32
2022-12-18T22:19:04.987Z,91.33
2022-12-18T22:21:36.730Z,91.69
2022-12-18T22:24:17.896Z,91.82
2022-12-18T22:26:46.403Z,92.32
2022-12-18T22:29:37.280Z,91.89
2022-12-18T22:32:05.361Z,92.34
2022-12-18T22:34:36.447Z,92.36
2022-12-18T22:37:03.334Z,92.17
2022-12-18T22:39:30.642Z,92.62
2022-12-18T22:41:57.907Z,92.87
2022-12-18T22:44:24.357Z,92.67
2022-12-18T22:47:05.351Z,92.72
2022-12-18T22:49:35.225Z,92.54
2022-12-18T22:52:03.373Z,92.45
2022-12-18T22:54:29.855Z,92.79
2022-12-18T22:56:56.969Z,93.18
2022-12-18T22:59:23.749Z,93.07
2022-12-18T23:01:56.257Z,93.18
2022-12-18T23:04:29.085Z,93.18
2022-12-18T23:07:01.520Z,93.46
2022-12-18T23:09:28.478Z,93.37
2022-12-18T23:11:54.837Z,93.44
2022-12-18T23:14:21.193Z,93.08
2022-12-18T23:16:47.588Z,93.70
2022-12-18T23:19:16.287Z,93.41
2022-12-18T23:21:42.677Z,93.50
2022-12-18T23:24:09.398Z,93.72
2022-12-18T23:26:37.392Z,93.85
2022-12-18T23:29:04.107Z,93.95
2022-12-18T23:31:33.229Z,94.02
2022-12-18T23:34:01.383Z,93.70
2022-12-18T23:36:28.869Z,93.86
2022-12-18T23:39:00.442Z,94.25
2022-12-18T23:41:30.209Z,94.23
2022-12-18T23:43:57.651Z,94.54
2022-12-18T23:46:27.126Z,94.15
2022-12-18T23:48:58.352Z,94.09
2022-12-18T23:51:25.747Z,94.52
2022-12-18T23:53:53.608Z,94.22
2022-12-18T23:56:20.409Z,94.38
2022-12-18T23:58:48.536Z,94.95
